createdAt,value
2022-12-14T00:03:19.915Z,-2.70
2022-12-14T00:08:21.574Z,-2.72
2022-12-14T00:13:23.118Z,-2.55
2022-12-14T00:18:24.909Z,-2.56
2022-12-14T00:23:26.605Z,-2.56
2022-12-14T00:28:28.584Z,-2.48
2022-12-14T00:33:30.396Z,-2.51
2022-12-14T00:38:31.965Z,-2.28
2022-12-14T00:43:33.630Z,-2.48
2022-12-14T00:48:35.627Z,-2.38
2022-12-14T00:53:37.135Z,-2.37
2022-12-14T00:58:38.661Z,-2.39
2022-12-14T01:03:40.303Z,-2.50
2022-12-14T01:08:41.976Z,-2.66
2022-12-14T01:13:43.537Z,-2.45
2022-12-14T01:18:45.103Z,-2.47
2022-12-14T01:23:47.948Z,-2.71
2022-12-14T01:28:56.357Z,-2.56
2022-12-14T01:33:57.898Z,-2.60
2022-12-14T01:39:02.241Z,-2.58
2022-12-14T01:44:23.605Z,-2.71
2022-12-14T01:49:45.419Z,-2.90
2022-12-14T01:54:57.817Z,-2.97
2022-12-14T02:00:06.741Z,-3.01
2022-12-14T02:05:10.980Z,-3.15
2022-12-14T02:10:12.507Z,-2.99
2022-12-14T02:15:14.682Z,-2.78
2022-12-14T02:20:17.282Z,-2.83
2022-12-14T02:25:43.417Z,-3.27
2022-12-14T02:31:26.032Z,-3.52
2022-12-14T02:36:41.679Z,-2.86
2022-12-14T02:41:55.127Z,-2.47
2022-12-14T02:47:03.688Z,-2.64
2022-12-14T02:52:22.555Z,-2.58
2022-12-14T02:57:37.164Z,-2.61
2022-12-14T03:02:40.941Z,-2.63
2022-12-14T03:07:54.178Z,-2.68
2022-12-14T03:13:02.889Z,-2.68
2022-12-14T03:18:07.521Z,-2.60
2022-12-14T03:23:18.129Z,-2.48
2022-12-14T03:28:39.719Z,-2.45
2022-12-14T03:33:45.048Z,-2.47
2022-12-14T03:38:50.994Z,-2.35
2022-12-14T03:44:10.622Z,-2.25
2022-12-14T03:49:50.721Z,-2.30
2022-12-14T03:55:16.744Z,-2.26
2022-12-14T04:00:22.515Z,-2.43
2022-12-14T04:05:33.049Z,-2.39
2022-12-14T04:11:04.024Z,-2.29
2022-12-14T04:16:31.363Z,-2.28
2022-12-14T04:21:55.044Z,-2.28
2022-12-14T04:27:03.286Z,-2.31
2022-12-14T04:32:13.461Z,-2.36
2022-12-14T04:37:19.585Z,-2.41
2022-12-14T04:42:28.247Z,-2.64
2022-12-14T04:47:35.045Z,-2.77
2022-12-14T04:52:43.267Z,-2.98
2022-12-14T04:58:02.557Z,-3.19
2022-12-14T05:03:32.203Z,-3.42
2022-12-14T05:08:52.214Z,-3.54
2022-12-14T05:13:53.724Z,-3.64
2022-12-14T05:18:55.277Z,-3.79
2022-12-14T05:23:59.933Z,-4.01
2022-12-14T05:29:01.444Z,-4.01
2022-12-14T05:34:03.393Z,-4.14
2022-12-14T05:39:04.880Z,-4.24
2022-12-14T05:44:06.445Z,-4.31
2022-12-14T05:49:08.009Z,-4.36
2022-12-14T05:54:09.614Z,-4.43
2022-12-14T05:59:15.431Z,-4.54
2022-12-14T06:04:18.199Z,-4.58
2022-12-14T06:09:19.949Z,-4.68
2022-12-14T06:14:21.509Z,-4.72
2022-12-14T06:19:23.035Z,-4.80
2022-12-14T06:24:24.510Z,-4.80
2022-12-14T06:29:26.239Z,-4.83
2022-12-14T06:34:28.805Z,-4.92
2022-12-14T06:39:30.366Z,-5.30
2022-12-14T06:44:31.873Z,-6.05
2022-12-14T06:49:33.408Z,-6.46
2022-12-14T06:54:34.880Z,-6.34
2022-12-14T06:59:36.352Z,-5.58
2022-12-14T07:04:37.820Z,-5.28
2022-12-14T07:09:39.521Z,-5.08
2022-12-14T07:14:41.074Z,-5.03
2022-12-14T07:19:46.317Z,-4.97
2022-12-14T07:24:50.672Z,-4.97
2022-12-14T07:29:52.353Z,-5.00
2022-12-14T07:34:53.892Z,-5.03
2022-12-14T07:39:55.446Z,-4.99
2022-12-14T07:44:56.961Z,-4.98
2022-12-14T07:49:58.434Z,-4.97
2022-12-14T07:54:59.986Z,-5.03
2022-12-14T08:00:01.537Z,-4.97
2022-12-14T08:05:07.795Z,-5.05
2022-12-14T08:10:12.114Z,-5.01
2022-12-14T08:15:13.683Z,-5.37
2022-12-14T08:20:15.368Z,-5.71
2022-12-14T08:25:16.912Z,-5.94
2022-12-14T08:30:18.438Z,-6.62
2022-12-14T08:35:19.920Z,-6.99
2022-12-14T08:40:21.390Z,-7.46
2022-12-14T08:45:22.854Z,-7.68
2022-12-14T08:50:25.670Z,-7.02
2022-12-14T08:55:31.353Z,-5.81
2022-12-14T09:00:35.354Z,-4.99
2022-12-14T09:05:36.974Z,-4.51
2022-12-14T09:10:38.701Z,-4.12
2022-12-14T09:15:40.238Z,-3.82
2022-12-14T09:20:43.354Z,-3.56
2022-12-14T09:25:44.912Z,-3.32
2022-12-14T09:30:46.438Z,-3.23
2022-12-14T09:35:47.970Z,-3.01
2022-12-14T09:40:59.313Z,-2.47
2022-12-14T09:46:13.289Z,-2.16
2022-12-14T09:51:21.240Z,-1.79
2022-12-14T09:56:22.725Z,-1.56
2022-12-14T10:07:34.660Z,-1.25
2022-12-14T10:12:39.051Z,-1.09
2022-12-14T10:17:59.121Z,-0.92
2022-12-14T10:23:02.181Z,-0.76
2022-12-14T10:28:11.182Z,-0.67
2022-12-14T10:33:24.735Z,-0.57
2022-12-14T10:38:46.067Z,-0.50
2022-12-14T10:44:05.777Z,-0.37
2022-12-14T10:49:33.873Z,-0.30
2022-12-14T10:54:44.930Z,-0.24
2022-12-14T11:00:05.245Z,-0.16
2022-12-14T11:05:41.261Z,-0.07
2022-12-14T11:10:42.743Z,-0.02
2022-12-14T11:15:46.968Z,0.09
2022-12-14T11:20:57.934Z,0.20
2022-12-14T11:26:02.293Z,0.22
2022-12-14T11:31:05.529Z,0.18
2022-12-14T11:36:08.716Z,0.25
2022-12-14T11:41:21.224Z,0.30
2022-12-14T11:46:44.780Z,0.29
2022-12-14T11:52:05.000Z,0.20
2022-12-14T11:57:12.658Z,0.24
2022-12-14T12:02:37.245Z,0.31
2022-12-14T12:07:50.841Z,0.28
2022-12-14T12:13:00.668Z,0.27
2022-12-14T12:18:08.451Z,0.30
2022-12-14T12:23:41.997Z,0.31
2022-12-14T12:28:51.897Z,0.25
2022-12-14T12:34:00.684Z,0.24
2022-12-14T12:39:16.782Z,0.25
2022-12-14T12:44:27.518Z,0.24
2022-12-14T12:49:29.178Z,0.24
2022-12-14T12:54:36.207Z,0.25
2022-12-14T12:59:50.271Z,0.25
2022-12-14T13:04:53.444Z,0.29
2022-12-14T13:10:05.969Z,0.31
2022-12-14T13:15:39.364Z,0.28
2022-12-14T13:20:41.012Z,0.27
2022-12-14T13:26:02.406Z,0.21
2022-12-14T13:31:14.515Z,0.16
2022-12-14T13:36:42.838Z,0.07
2022-12-14T13:41:50.142Z,0.07
2022-12-14T13:47:06.621Z,0.07
2022-12-14T13:52:31.856Z,0.08
2022-12-14T13:57:33.412Z,0.01
2022-12-14T14:02:34.923Z,-0.07
2022-12-14T14:07:49.307Z,-0.09
2022-12-14T14:12:50.832Z,-0.17
2022-12-14T14:17:54.081Z,-0.26
2022-12-14T14:23:13.492Z,-0.15
2022-12-14T14:28:22.611Z,-0.30
2022-12-14T14:33:47.810Z,-0.50
2022-12-14T14:38:50.987Z,-0.67
2022-12-14T14:44:05.815Z,-0.70
2022-12-14T14:49:30.448Z,-0.74
2022-12-14T14:55:16.305Z,-0.88
2022-12-14T15:00:01.394Z,-0.95
2022-12-14T15:05:33.337Z,-0.99
2022-12-14T15:10:33.178Z,-1.00
2022-12-14T15:15:43.780Z,-1.11
2022-12-14T15:21:16.640Z,-1.24
2022-12-14T15:26:25.391Z,-1.31
2022-12-14T15:31:33.346Z,-1.34
2022-12-14T15:36:42.110Z,-1.47
2022-12-14T15:41:43.622Z,-1.59
2022-12-14T15:46:53.883Z,-1.62
2022-12-14T15:51:57.753Z,-1.67
2022-12-14T15:57:00.111Z,-1.77
2022-12-14T16:02:17.681Z,-1.87
2022-12-14T16:07:26.037Z,-1.96
2022-12-14T16:12:51.694Z,-2.02
2022-12-14T16:18:02.190Z,-2.02
2022-12-14T16:23:19.880Z,-2.11
2022-12-14T16:28:37.467Z,-2.29
2022-12-14T16:33:41.548Z,-2.27
2022-12-14T16:38:59.539Z,-2.48
2022-12-14T16:44:01.797Z,-2.55
2022-12-14T16:49:28.079Z,-2.61
2022-12-14T16:54:32.266Z,-2.69
2022-12-14T16:59:42.103Z,-2.75
2022-12-14T17:04:43.665Z,-2.75
2022-12-14T17:09:45.231Z,-2.74
2022-12-14T17:14:49.738Z,-2.64
2022-12-14T17:19:51.874Z,-2.59
2022-12-14T17:24:53.668Z,-2.56
2022-12-14T17:29:57.243Z,-2.61
2022-12-14T17:34:59.424Z,-2.66
2022-12-14T17:40:00.982Z,-2.65
2022-12-14T17:45:02.636Z,-2.58
2022-12-14T17:50:04.487Z,-2.51
2022-12-14T17:55:06.184Z,-2.51
2022-12-14T18:00:27.376Z,-2.47
2022-12-14T18:05:29.799Z,-2.44
2022-12-14T18:10:31.610Z,-2.41
2022-12-14T18:15:45.034Z,-2.38
2022-12-14T18:20:54.798Z,-2.29
2022-12-14T18:25:58.961Z,-2.28
2022-12-14T18:31:05.111Z,-2.22
2022-12-14T18:36:11.533Z,-2.18
2022-12-14T18:41:16.240Z,-2.24
2022-12-14T18:46:18.261Z,-2.20
2022-12-14T18:51:23.502Z,-2.23
2022-12-14T18:56:25.410Z,-2.29
2022-12-14T19:01:27.127Z,-2.31
2022-12-14T19:06:45.490Z,-2.35
2022-12-14T19:11:47.469Z,-2.31
2022-12-14T19:16:48.941Z,-2.28
2022-12-14T19:21:50.515Z,-2.39
2022-12-14T19:26:51.980Z,-2.29
2022-12-14T19:31:54.727Z,-2.12
2022-12-14T19:36:57.106Z,-2.01
2022-12-14T19:41:58.633Z,-1.97
2022-12-14T19:47:01.145Z,-1.99
2022-12-14T19:52:02.716Z,-2.04
2022-12-14T19:57:04.255Z,-2.11
2022-12-14T20:02:06.055Z,-2.15
2022-12-14T20:07:08.665Z,-2.00
2022-12-14T20:12:11.326Z,-1.91
2022-12-14T20:17:14.171Z,-2.40
2022-12-14T20:22:15.819Z,-3.12
2022-12-14T20:27:17.811Z,-2.97
2022-12-14T20:32:19.348Z,-2.20
2022-12-14T20:37:20.892Z,-1.93
2022-12-14T20:42:22.404Z,-1.87
2022-12-14T20:47:23.876Z,-1.91
2022-12-14T20:52:25.540Z,-1.90
2022-12-14T20:57:28.279Z,-1.91
2022-12-14T21:02:29.866Z,-1.95
2022-12-14T21:07:32.695Z,-2.04
2022-12-14T21:12:35.045Z,-2.22
2022-12-14T21:17:36.551Z,-2.24
2022-12-14T21:22:38.103Z,-2.63
2022-12-14T21:27:39.753Z,-3.27
2022-12-14T21:32:41.265Z,-3.77
2022-12-14T21:37:42.821Z,-3.71
2022-12-14T21:42:44.354Z,-2.88
2022-12-14T21:47:45.898Z,-2.46
2022-12-14T21:52:47.425Z,-2.19
2022-12-14T21:58:07.718Z,-2.08
2022-12-14T22:03:09.260Z,-2.03
2022-12-14T22:08:10.824Z,-2.05
2022-12-14T22:13:12.325Z,-2.09
2022-12-14T22:18:13.841Z,-2.21
2022-12-14T22:23:15.718Z,-3.02
2022-12-14T22:28:17.216Z,-3.66
2022-12-14T22:33:18.792Z,-4.04
2022-12-14T22:38:20.265Z,-3.59
2022-12-14T22:43:28.161Z,-2.68
2022-12-14T22:48:36.401Z,-2.41
2022-12-14T22:53:38.020Z,-2.27
2022-12-14T22:58:44.723Z,-2.21
2022-12-14T23:03:52.638Z,-2.16
2022-12-14T23:09:12.513Z,-2.21
2022-12-14T23:14:32.964Z,-2.98
2022-12-14T23:19:53.244Z,-3.78
2022-12-14T23:25:12.945Z,-4.55
2022-12-14T23:30:32.836Z,-5.13
2022-12-14T23:35:52.943Z,-5.06
2022-12-14T23:41:20.400Z,-3.76
2022-12-14T23:46:40.322Z,-3.16
2022-12-14T23:52:00.531Z,-2.73
2022-12-14T23:57:24.969Z,-2.52
